Time;durP1;ratioP1;P1;durP2;ratioP2;P2;SDS_P1;SDS_P2;PMS_P1;PMS_P2;Temp;Humidity;BMP_temperature;BMP_pressure;BME280_temperature;BME280_humidity;BME280_pressure;Samples;Min_cycle;Max_cycle;Signal;HPM_P1;HPM_P2
2023/04/27 00:01:13;;;;;;;3.95;1.13;;;;;;;;;;5040989;28;20072;-44
2023/04/27 00:03:39;;;;;;;7.15;0.98;;;;;;;;;;5043789;28;20028;-43
2023/04/27 00:06:04;;;;;;;4.10;1.08;;;;;;;;;;5042905;28;20045;-43
2023/04/27 00:08:30;;;;;;;6.43;1.05;;;;;;;;;;5043362;28;20056;-44
2023/04/27 00:10:55;;;;;;;5.22;0.98;;;;;;;;;;5043336;28;20041;-46
2023/04/27 00:13:21;;;;;;;6.35;0.82;;;;;;;;;;5040064;28;20120;-46
2023/04/27 00:15:47;;;;;;;4.35;0.82;;;;;;;;;;5043057;28;20033;-48
2023/04/27 00:18:12;;;;;;;2.97;1.20;;;;;;;;;;5044724;28;20021;-45
2023/04/27 00:20:38;;;;;;;1.38;0.90;;;;;;;;;;5043445;28;20049;-43
2023/04/27 00:23:04;;;;;;;2.65;1.00;;;;;;;;;;5041217;28;20477;-44
2023/04/27 00:25:30;;;;;;;1.50;1.02;;;;;;;;;;5042602;28;20170;-44
2023/04/27 00:27:55;;;;;;;1.35;0.90;;;;;;;;;;5042187;28;20401;-49
2023/04/27 00:30:20;;;;;;;1.20;1.10;;;;;;;;;;5043133;28;20017;-45
2023/04/27 00:32:46;;;;;;;1.13;0.95;;;;;;;;;;5042197;28;20036;-44
2023/04/27 00:35:11;;;;;;;2.00;1.02;;;;;;;;;;5039912;28;20033;-45
2023/04/27 00:37:37;;;;;;;1.95;1.10;;;;;;;;;;5046295;28;20048;-43
2023/04/27 00:40:06;;;;;;;5.47;0.80;;;;;;;;;;5042176;28;20025;-46
2023/04/27 00:42:32;;;;;;;1.17;1.00;;;;;;;;;;5042892;28;20491;-45
2023/04/27 00:44:58;;;;;;;1.73;0.95;;;;;;;;;;5043404;28;20111;-47
2023/04/27 00:47:23;;;;;;;1.90;1.00;;;;;;;;;;5039764;28;20150;-45
2023/04/27 00:49:49;;;;;;;4.75;1.08;;;;;;;;;;5043858;28;20025;-46
2023/04/27 00:52:15;;;;;;;2.38;1.15;;;;;;;;;;5040558;28;20378;-46
2023/04/27 00:54:40;;;;;;;3.05;1.10;;;;;;;;;;5043015;28;20852;-45
2023/04/27 00:57:07;;;;;;;6.32;1.20;;;;;;;;;;5041573;28;20808;-44
2023/04/27 00:59:33;;;;;;;5.07;1.38;;;;;;;;;;5038158;28;20048;-50
2023/04/27 01:01:59;;;;;;;1.48;1.00;;;;;;;;;;5042328;28;20037;-45
2023/04/27 01:04:24;;;;;;;3.30;1.05;;;;;;;;;;5043170;28;20040;-43
2023/04/27 01:06:50;;;;;;;1.48;0.95;;;;;;;;;;5038697;28;20038;-45
2023/04/27 01:09:18;;;;;;;4.53;1.20;;;;;;;;;;5043571;28;20021;-44
2023/04/27 01:11:43;;;;;;;4.50;1.20;;;;;;;;;;5046011;28;20044;-44
2023/04/27 01:14:09;;;;;;;1.90;1.00;;;;;;;;;;5047206;28;20026;-43
2023/04/27 01:16:34;;;;;;;2.58;1.23;;;;;;;;;;5042562;28;20047;-43
2023/04/27 01:19:00;;;;;;;4.07;1.33;;;;;;;;;;5045268;28;20029;-47
2023/04/27 01:21:26;;;;;;;3.08;1.00;;;;;;;;;;5046276;28;20026;-46
2023/04/27 01:23:52;;;;;;;3.92;1.00;;;;;;;;;;5046526;28;20040;-43
2023/04/27 01:26:17;;;;;;;3.00;1.20;;;;;;;;;;5045232;28;20472;-43
2023/04/27 01:28:43;;;;;;;1.60;1.00;;;;;;;;;;5046186;28;20113;-44
2023/04/27 01:31:12;;;;;;;0.88;0.88;;;;;;;;;;5046216;28;20064;-43
2023/04/27 01:33:38;;;;;;;1.40;1.30;;;;;;;;;;5044722;28;20033;-46
2023/04/27 01:36:03;;;;;;;1.70;0.90;;;;;;;;;;5046425;28;20527;-43
2023/04/27 01:38:29;;;;;;;2.67;1.05;;;;;;;;;;5044404;28;20056;-42
2023/04/27 01:41:00;;;;;;;4.22;1.35;;;;;;;;;;5042844;28;20083;-44
2023/04/27 01:43:28;;;;;;;2.60;0.98;;;;;;;;;;5046780;28;20021;-43
2023/04/27 01:45:54;;;;;;;1.23;1.00;;;;;;;;;;5042227;28;20045;-46
2023/04/27 01:48:19;;;;;;;2.05;1.20;;;;;;;;;;5045099;28;20074;-44
2023/04/27 01:50:45;;;;;;;1.27;0.95;;;;;;;;;;5040987;28;20045;-43
2023/04/27 01:53:10;;;;;;;3.20;1.17;;;;;;;;;;5045113;28;20028;-46
2023/04/27 01:55:36;;;;;;;4.45;1.30;;;;;;;;;;5046274;28;20110;-44
2023/04/27 01:58:01;;;;;;;2.92;1.05;;;;;;;;;;5044196;28;20021;-45
2023/04/27 02:00:27;;;;;;;1.77;1.30;;;;;;;;;;5044804;28;20063;-43
2023/04/27 02:02:52;;;;;;;1.40;1.30;;;;;;;;;;5046115;28;20079;-44
2023/04/27 02:05:19;;;;;;;1.42;1.20;;;;;;;;;;5046895;28;20473;-43
2023/04/27 02:07:44;;;;;;;1.77;0.98;;;;;;;;;;5045582;28;20074;-43
2023/04/27 02:10:10;;;;;;;1.50;1.20;;;;;;;;;;5044693;28;20642;-45
2023/04/27 02:12:35;;;;;;;2.60;1.10;;;;;;;;;;5042900;28;20035;-45
2023/04/27 02:15:02;;;;;;;2.08;0.80;;;;;;;;;;5045493;28;20129;-43
2023/04/27 02:17:28;;;;;;;2.75;1.23;;;;;;;;;;5044556;28;20041;-44
2023/04/27 02:19:54;;;;;;;1.00;1.00;;;;;;;;;;5046385;28;20082;-43
2023/04/27 02:22:19;;;;;;;2.55;1.20;;;;;;;;;;5041299;28;20087;-43
2023/04/27 02:24:45;;;;;;;2.90;1.20;;;;;;;;;;5044015;28;20445;-44
2023/04/27 02:27:10;;;;;;;1.23;1.05;;;;;;;;;;5044050;28;21840;-46
2023/04/27 02:29:37;;;;;;;3.42;1.25;;;;;;;;;;5045632;28;20762;-47
2023/04/27 02:32:05;;;;;;;2.45;1.30;;;;;;;;;;5046134;28;20128;-45
2023/04/27 02:34:30;;;;;;;3.05;1.40;;;;;;;;;;5042959;28;20040;-45
2023/04/27 02:36:55;;;;;;;0.75;0.68;;;;;;;;;;5042759;28;20037;-44
2023/04/27 02:39:21;;;;;;;1.60;1.05;;;;;;;;;;5040110;28;20040;-43
2023/04/27 02:41:46;;;;;;;1.45;1.25;;;;;;;;;;5043938;28;20033;-48
2023/04/27 02:44:12;;;;;;;1.20;1.10;;;;;;;;;;5044452;28;20044;-45
2023/04/27 02:46:37;;;;;;;2.17;1.20;;;;;;;;;;5043586;28;20086;-46
2023/04/27 02:49:02;;;;;;;1.98;1.02;;;;;;;;;;5043329;28;20052;-43
2023/04/27 02:51:28;;;;;;;7.65;1.38;;;;;;;;;;5046108;28;20037;-46
2023/04/27 02:53:53;;;;;;;3.58;1.20;;;;;;;;;;5043920;28;20021;-44
2023/04/27 02:56:19;;;;;;;3.22;1.50;;;;;;;;;;5044021;28;20128;-43
2023/04/27 02:58:44;;;;;;;2.42;1.30;;;;;;;;;;5041066;28;20026;-45
2023/04/27 03:01:10;;;;;;;3.78;1.20;;;;;;;;;;5042909;28;20044;-44
2023/04/27 03:03:35;;;;;;;3.67;1.20;;;;;;;;;;5043944;28;20036;-47
2023/04/27 03:06:00;;;;;;;1.17;0.85;;;;;;;;;;5042250;28;20429;-46
2023/04/27 03:08:26;;;;;;;1.40;1.20;;;;;;;;;;5044679;28;20087;-48
2023/04/27 03:10:51;;;;;;;2.20;1.08;;;;;;;;;;5043205;28;20044;-46
2023/04/27 03:13:17;;;;;;;5.55;1.50;;;;;;;;;;5044988;28;20405;-43
2023/04/27 03:15:42;;;;;;;2.35;1.00;;;;;;;;;;5043059;28;20128;-47
2023/04/27 03:18:07;;;;;;;6.50;1.30;;;;;;;;;;5042578;28;20029;-46
2023/04/27 03:20:33;;;;;;;6.30;1.45;;;;;;;;;;5040963;28;20037;-43
2023/04/27 03:22:58;;;;;;;5.80;1.30;;;;;;;;;;5041636;28;20033;-44
2023/04/27 03:25:23;;;;;;;3.95;1.20;;;;;;;;;;5039823;28;20029;-45
2023/04/27 03:27:49;;;;;;;1.58;1.17;;;;;;;;;;5041346;28;20029;-45
2023/04/27 03:30:15;;;;;;;1.65;1.00;;;;;;;;;;5044032;28;20025;-43
2023/04/27 03:32:40;;;;;;;1.40;1.10;;;;;;;;;;5042699;28;20112;-51
2023/04/27 03:35:06;;;;;;;1.20;1.00;;;;;;;;;;5042963;28;20520;-44
2023/04/27 03:37:33;;;;;;;2.50;1.10;;;;;;;;;;5041157;28;20118;-45
2023/04/27 03:39:58;;;;;;;2.15;1.00;;;;;;;;;;5043954;28;20074;-45
2023/04/27 03:42:23;;;;;;;3.60;1.20;;;;;;;;;;5044949;28;20688;-48
2023/04/27 03:44:49;;;;;;;3.83;1.25;;;;;;;;;;5043329;28;20146;-50
2023/04/27 03:47:14;;;;;;;1.58;1.05;;;;;;;;;;5042153;28;20144;-46
2023/04/27 03:49:40;;;;;;;2.70;1.20;;;;;;;;;;5042735;28;20490;-47
2023/04/27 03:52:05;;;;;;;3.97;1.33;;;;;;;;;;5042854;28;20570;-43
2023/04/27 03:54:30;;;;;;;3.25;1.25;;;;;;;;;;5042753;28;20029;-49
2023/04/27 03:56:56;;;;;;;5.38;1.30;;;;;;;;;;5044368;28;20040;-43
2023/04/27 03:59:21;;;;;;;3.03;1.30;;;;;;;;;;5043228;28;20474;-49
2023/04/27 04:01:46;;;;;;;2.97;1.55;;;;;;;;;;5041659;28;20040;-45
2023/04/27 04:04:12;;;;;;;4.15;1.45;;;;;;;;;;5042617;28;20054;-50
2023/04/27 04:06:37;;;;;;;6.38;1.33;;;;;;;;;;5043448;28;20490;-45
2023/04/27 04:09:03;;;;;;;1.52;1.10;;;;;;;;;;5043202;28;20403;-52
2023/04/27 04:11:28;;;;;;;1.90;1.17;;;;;;;;;;5041327;28;20041;-52
2023/04/27 04:13:54;;;;;;;4.45;1.45;;;;;;;;;;5043207;28;20488;-49
2023/04/27 04:16:19;;;;;;;4.45;1.45;;;;;;;;;;5043745;28;20048;-49
2023/04/27 04:18:45;;;;;;;2.30;1.67;;;;;;;;;;5040395;28;20017;-47
2023/04/27 04:21:10;;;;;;;3.65;1.50;;;;;;;;;;5045599;28;20037;-50
2023/04/27 04:23:36;;;;;;;5.30;1.48;;;;;;;;;;5042578;28;20016;-47
2023/04/27 04:26:02;;;;;;;5.00;1.42;;;;;;;;;;5041212;28;20041;-47
2023/04/27 04:28:28;;;;;;;3.22;1.30;;;;;;;;;;5040492;28;20373;-49
2023/04/27 04:30:53;;;;;;;4.45;1.65;;;;;;;;;;5041898;28;20098;-51
2023/04/27 04:33:19;;;;;;;3.60;1.75;;;;;;;;;;5042008;28;20037;-46
2023/04/27 04:35:45;;;;;;;2.30;1.88;;;;;;;;;;5042616;28;20500;-48
2023/04/27 04:38:10;;;;;;;4.97;1.40;;;;;;;;;;5040747;28;20030;-50
2023/04/27 04:40:39;;;;;;;3.53;1.42;;;;;;;;;;5040041;28;20041;-49
2023/04/27 04:43:05;;;;;;;2.08;1.70;;;;;;;;;;5041152;28;20025;-50
2023/04/27 04:45:31;;;;;;;5.72;1.50;;;;;;;;;;5047692;28;20128;-51
2023/04/27 04:47:56;;;;;;;2.60;1.35;;;;;;;;;;5045762;28;20028;-50
2023/04/27 04:50:22;;;;;;;4.38;1.20;;;;;;;;;;5045845;28;20033;-47
2023/04/27 04:52:48;;;;;;;2.55;1.60;;;;;;;;;;5048335;28;20124;-52
2023/04/27 04:55:13;;;;;;;5.13;2.13;;;;;;;;;;5045311;28;20095;-47
2023/04/27 04:57:38;;;;;;;2.05;1.45;;;;;;;;;;5042752;28;20024;-50
2023/04/27 05:00:09;;;;;;;2.63;1.95;;;;;;;;;;5041537;28;20036;-45
2023/04/27 05:02:35;;;;;;;5.97;1.80;;;;;;;;;;5048558;28;20045;-49
2023/04/27 05:05:00;;;;;;;4.65;2.00;;;;;;;;;;5046151;28;20132;-47
2023/04/27 05:07:26;;;;;;;2.55;1.63;;;;;;;;;;5042800;28;20044;-46
2023/04/27 05:09:51;;;;;;;4.18;1.70;;;;;;;;;;5045993;28;20033;-44
2023/04/27 05:12:16;;;;;;;2.20;1.40;;;;;;;;;;5047233;28;20048;-43
2023/04/27 05:14:43;;;;;;;2.55;1.38;;;;;;;;;;5045196;28;20029;-43
2023/04/27 05:17:08;;;;;;;1.92;1.60;;;;;;;;;;5043530;28;20041;-46
2023/04/27 05:19:33;;;;;;;6.53;2.10;;;;;;;;;;5046513;28;20025;-44
2023/04/27 05:21:59;;;;;;;3.85;1.70;;;;;;;;;;5043491;28;20094;-46
2023/04/27 05:24:25;;;;;;;1.52;1.40;;;;;;;;;;5043632;28;20117;-44
2023/04/27 05:26:50;;;;;;;2.35;1.98;;;;;;;;;;5045616;28;20072;-44
2023/04/27 05:29:16;;;;;;;3.42;1.90;;;;;;;;;;5046382;28;20032;-42
2023/04/27 05:31:42;;;;;;;2.80;1.50;;;;;;;;;;5044040;28;20441;-46
2023/04/27 05:34:08;;;;;;;7.05;1.70;;;;;;;;;;5042226;28;20539;-41
2023/04/27 05:36:34;;;;;;;3.28;1.52;;;;;;;;;;5040437;28;20509;-44
2023/04/27 05:39:00;;;;;;;2.20;1.58;;;;;;;;;;5045978;28;20474;-43
2023/04/27 05:41:25;;;;;;;2.67;1.60;;;;;;;;;;5041753;28;20053;-42
2023/04/27 05:43:52;;;;;;;8.55;2.22;;;;;;;;;;5039489;28;20047;-45
2023/04/27 05:46:17;;;;;;;2.72;2.00;;;;;;;;;;5039300;28;20033;-47
2023/04/27 05:48:43;;;;;;;13.35;2.88;;;;;;;;;;5038629;28;20070;-43
2023/04/27 05:51:08;;;;;;;6.88;1.80;;;;;;;;;;5044288;28;20045;-44
2023/04/27 05:53:34;;;;;;;5.68;2.08;;;;;;;;;;5047105;28;20052;-44
2023/04/27 05:56:00;;;;;;;2.08;1.55;;;;;;;;;;5043408;28;20041;-43
2023/04/27 05:58:28;;;;;;;3.55;2.28;;;;;;;;;;5048631;28;20029;-44
2023/04/27 06:00:54;;;;;;;2.20;1.80;;;;;;;;;;5043935;28;20049;-45
2023/04/27 06:03:20;;;;;;;4.95;1.80;;;;;;;;;;5041228;28;20025;-45
2023/04/27 06:05:45;;;;;;;2.90;2.10;;;;;;;;;;5044404;28;20049;-43
2023/04/27 06:08:11;;;;;;;5.32;1.98;;;;;;;;;;5045723;28;20032;-46
2023/04/27 06:10:38;;;;;;;4.78;1.63;;;;;;;;;;5045665;28;20954;-43
2023/04/27 06:13:03;;;;;;;3.22;1.75;;;;;;;;;;5043248;28;20033;-43
2023/04/27 06:15:28;;;;;;;2.40;1.70;;;;;;;;;;5045609;28;20044;-45
2023/04/27 06:17:54;;;;;;;9.50;1.52;;;;;;;;;;5043041;28;20029;-43
2023/04/27 06:20:19;;;;;;;3.72;1.88;;;;;;;;;;5044041;28;20075;-45
2023/04/27 06:22:45;;;;;;;4.75;2.00;;;;;;;;;;5044164;28;20028;-42
2023/04/27 06:25:11;;;;;;;6.43;2.00;;;;;;;;;;5046839;28;20075;-45
2023/04/27 06:27:36;;;;;;;3.28;2.13;;;;;;;;;;5044013;28;20094;-46
2023/04/27 06:30:02;;;;;;;1.85;1.75;;;;;;;;;;5044101;28;20036;-42
2023/04/27 06:32:27;;;;;;;3.45;2.15;;;;;;;;;;5044325;28;20065;-42
2023/04/27 06:34:52;;;;;;;3.10;1.63;;;;;;;;;;5044446;28;20449;-45
2023/04/27 06:37:18;;;;;;;5.50;1.70;;;;;;;;;;5042263;28;20041;-43
2023/04/27 06:39:43;;;;;;;6.05;1.88;;;;;;;;;;5044812;28;20035;-44
2023/04/27 06:42:09;;;;;;;1.88;1.50;;;;;;;;;;5045901;28;20144;-45
2023/04/27 06:44:34;;;;;;;5.93;1.92;;;;;;;;;;5046003;28;20100;-42
2023/04/27 06:47:00;;;;;;;10.02;1.67;;;;;;;;;;5045449;28;20539;-43
2023/04/27 06:49:25;;;;;;;3.20;1.92;;;;;;;;;;5044133;28;20036;-43
2023/04/27 06:51:51;;;;;;;2.40;1.63;;;;;;;;;;5034848;28;20129;-41
2023/04/27 06:54:16;;;;;;;2.72;1.77;;;;;;;;;;5045206;28;20052;-43
2023/04/27 06:56:42;;;;;;;4.63;1.98;;;;;;;;;;5043797;28;20516;-42
2023/04/27 06:59:07;;;;;;;2.80;1.70;;;;;;;;;;5045164;28;20025;-42
2023/04/27 07:01:33;;;;;;;2.13;1.70;;;;;;;;;;5044304;28;20052;-44
2023/04/27 07:03:58;;;;;;;1.73;1.58;;;;;;;;;;5041480;28;20100;-43
2023/04/27 07:06:24;;;;;;;2.83;1.77;;;;;;;;;;5042649;28;20060;-43
2023/04/27 07:08:50;;;;;;;3.42;1.48;;;;;;;;;;5043020;28;20023;-46
2023/04/27 07:11:16;;;;;;;1.98;1.70;;;;;;;;;;5044578;28;20164;-43
2023/04/27 07:13:41;;;;;;;1.98;1.48;;;;;;;;;;5042994;28;20074;-43
2023/04/27 07:16:07;;;;;;;4.03;1.90;;;;;;;;;;5043325;28;20044;-43
2023/04/27 07:18:33;;;;;;;10.30;2.17;;;;;;;;;;5046984;28;20381;-47
2023/04/27 07:20:58;;;;;;;4.15;1.65;;;;;;;;;;5039948;28;20044;-48
2023/04/27 07:23:23;;;;;;;11.52;2.60;;;;;;;;;;5039785;28;20025;-43
2023/04/27 07:25:49;;;;;;;5.55;2.30;;;;;;;;;;5042673;28;20555;-43
2023/04/27 07:28:15;;;;;;;5.63;1.90;;;;;;;;;;5043551;28;20389;-44
2023/04/27 07:30:41;;;;;;;6.22;1.95;;;;;;;;;;5043458;28;20029;-42
2023/04/27 07:33:07;;;;;;;4.30;1.95;;;;;;;;;;5043050;28;20040;-47
2023/04/27 07:35:32;;;;;;;5.28;1.70;;;;;;;;;;5043632;28;20450;-43
2023/04/27 07:38:00;;;;;;;4.35;2.15;;;;;;;;;;5042232;28;20025;-43
2023/04/27 07:40:27;;;;;;;9.38;3.22;;;;;;;;;;5040745;28;20420;-43
2023/04/27 07:42:52;;;;;;;4.85;2.30;;;;;;;;;;5043640;28;20036;-43
2023/04/27 07:45:18;;;;;;;8.40;2.83;;;;;;;;;;5041515;28;20381;-44
2023/04/27 07:47:43;;;;;;;7.80;2.53;;;;;;;;;;5043575;28;20057;-43
2023/04/27 07:50:09;;;;;;;5.05;2.10;;;;;;;;;;5043395;28;20033;-43
2023/04/27 07:52:36;;;;;;;6.72;2.50;;;;;;;;;;5040725;28;20489;-43
2023/04/27 07:55:02;;;;;;;7.40;1.92;;;;;;;;;;5042387;28;20041;-44
2023/04/27 07:57:27;;;;;;;9.63;2.42;;;;;;;;;;5042676;28;20029;-45
2023/04/27 07:59:53;;;;;;;3.97;1.95;;;;;;;;;;5043985;28;20059;-46
2023/04/27 08:02:18;;;;;;;3.70;1.90;;;;;;;;;;5043725;28;20073;-44
2023/04/27 08:04:43;;;;;;;9.00;2.15;;;;;;;;;;5042599;28;20044;-45
2023/04/27 08:07:09;;;;;;;4.03;1.88;;;;;;;;;;5043501;28;20041;-43
2023/04/27 08:09:34;;;;;;;5.55;1.90;;;;;;;;;;5042746;28;20025;-44
2023/04/27 08:12:01;;;;;;;4.60;1.85;;;;;;;;;;5041823;28;20084;-44
2023/04/27 08:14:27;;;;;;;11.48;2.38;;;;;;;;;;5045352;28;20030;-43
2023/04/27 08:16:52;;;;;;;4.63;1.80;;;;;;;;;;5041788;28;20398;-42
2023/04/27 08:19:18;;;;;;;2.58;1.50;;;;;;;;;;5041836;28;20047;-44
2023/04/27 08:21:43;;;;;;;2.95;1.60;;;;;;;;;;5040854;28;20045;-45
2023/04/27 08:24:09;;;;;;;3.60;1.80;;;;;;;;;;5042114;28;20028;-43
2023/04/27 08:26:34;;;;;;;6.50;1.75;;;;;;;;;;5043456;28;20039;-45
2023/04/27 08:29:00;;;;;;;7.35;2.03;;;;;;;;;;5041664;28;20027;-44
2023/04/27 08:31:27;;;;;;;5.57;2.10;;;;;;;;;;5039750;28;20036;-43
2023/04/27 08:33:52;;;;;;;8.27;1.85;;;;;;;;;;5041125;28;20025;-46
2023/04/27 08:36:25;;;;;;;7.68;2.60;;;;;;;;;;5041392;28;20037;-43
2023/04/27 08:38:51;;;;;;;7.45;2.72;;;;;;;;;;5042964;28;20056;-44
2023/04/27 08:41:23;;;;;;;7.22;3.17;;;;;;;;;;5041545;28;20076;-46
2023/04/27 08:43:50;;;;;;;13.13;4.47;;;;;;;;;;5041739;28;20036;-45
2023/04/27 08:46:23;;;;;;;7.88;3.22;;;;;;;;;;5041375;28;20728;-44
2023/04/27 08:48:55;;;;;;;8.98;3.13;;;;;;;;;;5042285;28;20029;-44
2023/04/27 08:51:21;;;;;;;8.55;4.05;;;;;;;;;;5043753;28;20573;-48
2023/04/27 08:53:49;;;;;;;8.40;3.40;;;;;;;;;;5042581;28;20025;-43
2023/04/27 08:56:15;;;;;;;11.40;3.30;;;;;;;;;;5041200;28;20120;-46
2023/04/27 08:58:41;;;;;;;6.70;2.50;;;;;;;;;;5041889;28;20182;-43
2023/04/27 09:01:07;;;;;;;5.90;3.45;;;;;;;;;;5043214;28;20136;-45
2023/04/27 09:03:33;;;;;;;7.93;2.67;;;;;;;;;;5043636;28;20093;-43
2023/04/27 09:05:59;;;;;;;2.45;1.75;;;;;;;;;;5041481;28;20045;-43
2023/04/27 09:08:25;;;;;;;5.22;2.05;;;;;;;;;;5042657;28;20044;-44
2023/04/27 09:10:51;;;;;;;7.97;1.88;;;;;;;;;;5043481;28;20049;-44
2023/04/27 09:13:17;;;;;;;6.22;1.92;;;;;;;;;;5044559;28;20554;-43
2023/04/27 09:15:51;;;;;;;7.43;1.90;;;;;;;;;;5040132;28;20037;-43
2023/04/27 09:18:19;;;;;;;5.53;2.05;;;;;;;;;;5039649;28;20034;-43
2023/04/27 09:20:46;;;;;;;10.20;1.88;;;;;;;;;;5043394;28;20037;-44
2023/04/27 09:23:47;;;;;;;3.63;1.90;;;;;;;;;;5043189;28;20107;-44
2023/04/27 09:26:22;;;;;;;7.82;2.28;;;;;;;;;;5004166;28;20054;-45
2023/04/27 09:28:50;;;;;;;15.98;2.50;;;;;;;;;;5002967;28;20562;-43
2023/04/27 09:31:16;;;;;;;5.65;1.98;;;;;;;;;;5005337;28;20078;-43
2023/04/27 09:33:42;;;;;;;9.88;2.53;;;;;;;;;;5005196;28;20100;-43
2023/04/27 09:36:08;;;;;;;5.55;2.40;;;;;;;;;;5005632;28;20034;-43
2023/04/27 09:38:33;;;;;;;5.60;1.90;;;;;;;;;;5005191;28;20545;-44
2023/04/27 09:40:59;;;;;;;13.43;1.85;;;;;;;;;;5006118;28;20176;-46
2023/04/27 09:43:27;;;;;;;6.35;2.53;;;;;;;;;;5005797;28;20022;-43
2023/04/27 09:45:53;;;;;;;10.18;2.38;;;;;;;;;;5004775;28;20092;-43
2023/04/27 09:48:21;;;;;;;12.68;2.70;;;;;;;;;;5006543;28;20044;-46
2023/04/27 09:50:48;;;;;;;9.60;2.22;;;;;;;;;;5003783;28;20217;-46
2023/04/27 09:53:20;;;;;;;10.05;1.92;;;;;;;;;;5006081;28;20117;-45
2023/04/27 09:55:47;;;;;;;10.02;2.65;;;;;;;;;;5005592;28;20528;-43
2023/04/27 09:58:44;;;;;;;6.03;2.45;;;;;;;;;;5004403;28;20045;-43
2023/04/27 10:01:24;;;;;;;8.13;2.58;;;;;;;;;;5038829;28;20095;-44
2023/04/27 10:04:06;;;;;;;6.93;3.05;;;;;;;;;;5046714;28;20033;-46
2023/04/27 10:06:49;;;;;;;5.93;2.30;;;;;;;;;;5046941;28;20064;-46
2023/04/27 10:09:16;;;;;;;7.38;2.30;;;;;;;;;;5042400;28;20029;-46
2023/04/27 10:11:43;;;;;;;9.77;3.00;;;;;;;;;;5044040;28;20041;-43
2023/04/27 10:14:17;;;;;;;10.52;2.67;;;;;;;;;;5044475;28;20035;-50
2023/04/27 10:16:49;;;;;;;7.05;2.75;;;;;;;;;;5041916;28;20139;-46
2023/04/27 10:19:15;;;;;;;12.73;5.07;;;;;;;;;;5045031;28;20043;-42
2023/04/27 10:21:55;;;;;;;15.70;3.22;;;;;;;;;;5044174;28;20486;-46
2023/04/27 10:24:35;;;;;;;13.32;3.35;;;;;;;;;;5042342;28;20033;-46
2023/04/27 10:27:04;;;;;;;10.32;2.35;;;;;;;;;;5045045;28;20070;-47
2023/04/27 10:29:41;;;;;;;14.13;3.17;;;;;;;;;;5045448;28;20029;-46
2023/04/27 10:32:23;;;;;;;11.48;2.92;;;;;;;;;;5045399;28;20037;-43
2023/04/27 10:34:51;;;;;;;7.60;2.70;;;;;;;;;;5042468;28;20064;-43
2023/04/27 10:37:19;;;;;;;7.28;2.63;;;;;;;;;;5042896;28;20088;-43
2023/04/27 10:39:45;;;;;;;10.77;2.47;;;;;;;;;;5037400;28;20033;-46
2023/04/27 10:42:10;;;;;;;12.95;3.05;;;;;;;;;;5043478;28;20101;-44
2023/04/27 10:44:37;;;;;;;9.82;2.17;;;;;;;;;;5035905;28;20064;-48
2023/04/27 10:47:18;;;;;;;8.68;2.55;;;;;;;;;;5043807;28;20125;-43
2023/04/27 10:49:44;;;;;;;9.45;3.58;;;;;;;;;;5040386;28;20371;-43
2023/04/27 10:52:09;;;;;;;13.45;3.22;;;;;;;;;;5039961;28;20079;-43
2023/04/27 10:54:36;;;;;;;7.90;2.42;;;;;;;;;;5043462;28;20087;-46
2023/04/27 10:57:07;;;;;;;9.82;2.53;;;;;;;;;;5044367;28;20512;-45
2023/04/27 10:59:33;;;;;;;7.70;2.10;;;;;;;;;;5043287;28;20044;-43
2023/04/27 11:01:59;;;;;;;12.25;2.70;;;;;;;;;;5041927;28;20041;-43
2023/04/27 11:04:35;;;;;;;11.32;3.03;;;;;;;;;;5041882;28;20021;-45
2023/04/27 11:07:03;;;;;;;9.75;3.17;;;;;;;;;;5040485;28;20494;-48
2023/04/27 11:09:28;;;;;;;8.73;2.78;;;;;;;;;;5045197;28;20977;-46
2023/04/27 11:11:54;;;;;;;8.55;2.75;;;;;;;;;;5036893;28;20040;-44
2023/04/27 11:14:22;;;;;;;3.92;1.83;;;;;;;;;;5041503;28;20435;-43
2023/04/27 11:16:48;;;;;;;6.93;2.40;;;;;;;;;;5042070;28;20086;-43
2023/04/27 11:19:14;;;;;;;8.88;2.45;;;;;;;;;;5043027;28;20428;-48
2023/04/27 11:21:40;;;;;;;7.95;2.40;;;;;;;;;;5042316;28;20555;-44
2023/04/27 11:24:07;;;;;;;11.85;2.45;;;;;;;;;;5043589;28;20389;-47
2023/04/27 11:26:33;;;;;;;10.52;2.97;;;;;;;;;;5043336;28;20127;-44
2023/04/27 11:29:12;;;;;;;5.68;2.10;;;;;;;;;;5043953;28;20108;-45
2023/04/27 11:31:46;;;;;;;6.55;2.45;;;;;;;;;;5044042;28;20106;-46
2023/04/27 11:34:18;;;;;;;9.02;2.90;;;;;;;;;;5040349;28;20029;-44
2023/04/27 11:36:44;;;;;;;9.90;3.28;;;;;;;;;;5043261;28;20037;-46
2023/04/27 11:39:20;;;;;;;18.95;3.53;;;;;;;;;;5036226;28;20063;-45
2023/04/27 11:41:46;;;;;;;9.60;2.50;;;;;;;;;;5037044;28;20049;-43
2023/04/27 11:44:11;;;;;;;13.02;2.60;;;;;;;;;;5042043;28;20090;-48
2023/04/27 11:46:38;;;;;;;9.32;2.40;;;;;;;;;;5044953;28;20086;-46
2023/04/27 11:49:05;;;;;;;9.68;2.60;;;;;;;;;;5038898;28;20029;-45
2023/04/27 11:51:32;;;;;;;14.23;4.10;;;;;;;;;;5033346;28;20037;-47
2023/04/27 11:54:02;;;;;;;10.45;3.50;;;;;;;;;;5039909;28;20037;-44
2023/04/27 11:56:35;;;;;;;5.95;2.47;;;;;;;;;;5042374;28;20520;-44
2023/04/27 11:59:01;;;;;;;15.60;2.85;;;;;;;;;;5041784;28;20103;-43
2023/04/27 12:01:27;;;;;;;11.27;3.10;;;;;;;;;;5037020;28;20049;-43
2023/04/27 12:03:52;;;;;;;13.57;3.25;;;;;;;;;;5041932;28;20034;-46
2023/04/27 12:06:27;;;;;;;9.65;2.72;;;;;;;;;;5041670;28;20060;-44
2023/04/27 12:08:56;;;;;;;16.77;3.70;;;;;;;;;;5043308;28;20040;-42
2023/04/27 12:11:22;;;;;;;16.50;2.85;;;;;;;;;;5042805;28;20041;-43
2023/04/27 12:13:47;;;;;;;9.70;2.60;;;;;;;;;;5044484;28;20095;-43
2023/04/27 12:16:13;;;;;;;15.70;2.80;;;;;;;;;;5042830;28;20036;-43
2023/04/27 12:18:38;;;;;;;10.07;2.60;;;;;;;;;;5040003;28;20082;-43
2023/04/27 12:21:06;;;;;;;13.85;2.95;;;;;;;;;;5042557;28;20056;-43
2023/04/27 12:23:32;;;;;;;11.80;2.53;;;;;;;;;;5039915;28;20108;-42
2023/04/27 12:25:57;;;;;;;12.35;2.42;;;;;;;;;;5039956;28;20132;-41
2023/04/27 12:28:23;;;;;;;9.75;2.70;;;;;;;;;;5042425;28;20025;-41
2023/04/27 12:30:48;;;;;;;11.15;2.78;;;;;;;;;;5041465;28;20445;-45
2023/04/27 12:33:14;;;;;;;13.25;2.40;;;;;;;;;;5040708;28;20028;-42
2023/04/27 12:35:39;;;;;;;8.55;2.80;;;;;;;;;;5040099;28;20401;-44
2023/04/27 12:38:04;;;;;;;12.18;2.80;;;;;;;;;;5041301;28;20067;-46
2023/04/27 12:40:30;;;;;;;12.35;3.08;;;;;;;;;;5043510;28;20053;-49
2023/04/27 12:42:55;;;;;;;11.77;2.83;;;;;;;;;;5040525;28;20033;-46
2023/04/27 12:45:20;;;;;;;12.98;3.42;;;;;;;;;;5041548;28;21315;-50
2023/04/27 12:47:46;;;;;;;14.95;2.95;;;;;;;;;;5042536;28;20109;-41
2023/04/27 12:50:12;;;;;;;12.48;3.42;;;;;;;;;;5040328;28;20068;-41
2023/04/27 12:52:38;;;;;;;19.00;2.55;;;;;;;;;;5042586;28;20032;-42
2023/04/27 12:55:04;;;;;;;23.15;4.47;;;;;;;;;;5039917;28;20044;-43
2023/04/27 12:57:30;;;;;;;6.13;2.60;;;;;;;;;;5040845;28;20033;-41
2023/04/27 12:59:55;;;;;;;10.73;3.33;;;;;;;;;;5044047;28;20493;-42
2023/04/27 13:02:21;;;;;;;10.02;3.22;;;;;;;;;;5042263;28;20049;-41
2023/04/27 13:04:46;;;;;;;12.20;3.40;;;;;;;;;;5043340;28;20021;-42
2023/04/27 13:07:12;;;;;;;12.02;2.92;;;;;;;;;;5046933;28;20037;-41
2023/04/27 13:09:37;;;;;;;17.67;2.88;;;;;;;;;;5045961;28;20786;-42
2023/04/27 13:12:03;;;;;;;14.82;3.00;;;;;;;;;;5047098;28;20053;-41
2023/04/27 13:14:29;;;;;;;11.68;3.30;;;;;;;;;;5045144;28;20028;-42
2023/04/27 13:16:54;;;;;;;12.13;3.20;;;;;;;;;;5046726;28;20049;-42
2023/04/27 13:19:19;;;;;;;11.95;2.90;;;;;;;;;;5043665;28;20032;-44
2023/04/27 13:21:45;;;;;;;15.60;3.47;;;;;;;;;;5046235;28;20048;-41
2023/04/27 13:24:11;;;;;;;16.20;3.40;;;;;;;;;;5044023;28;20730;-43
2023/04/27 13:26:36;;;;;;;12.15;3.63;;;;;;;;;;5045079;28;20045;-43
2023/04/27 13:29:03;;;;;;;12.85;2.78;;;;;;;;;;5047388;28;20048;-41
2023/04/27 13:31:30;;;;;;;9.70;2.90;;;;;;;;;;5045964;28;20033;-42
2023/04/27 13:33:56;;;;;;;13.95;2.83;;;;;;;;;;5046707;28;20024;-43
2023/04/27 13:36:21;;;;;;;14.18;3.15;;;;;;;;;;5043962;28;20414;-41
2023/04/27 13:38:47;;;;;;;12.02;2.85;;;;;;;;;;5044471;28;20366;-45
2023/04/27 13:41:12;;;;;;;9.13;3.03;;;;;;;;;;5047018;28;20045;-42
2023/04/27 13:43:37;;;;;;;9.23;3.20;;;;;;;;;;5043839;28;20520;-41
2023/04/27 13:46:03;;;;;;;12.35;2.97;;;;;;;;;;5043897;28;20041;-45
2023/04/27 13:48:29;;;;;;;16.08;3.38;;;;;;;;;;5043311;28;20037;-41
2023/04/27 13:50:55;;;;;;;10.70;3.08;;;;;;;;;;5046252;28;20087;-43
2023/04/27 13:53:24;;;;;;;17.25;3.40;;;;;;;;;;5044242;28;20044;-41
2023/04/27 13:55:49;;;;;;;17.40;3.70;;;;;;;;;;5044489;28;20556;-41
2023/04/27 13:58:15;;;;;;;12.00;3.05;;;;;;;;;;5043781;28;20029;-42
2023/04/27 14:00:40;;;;;;;13.60;3.00;;;;;;;;;;5045417;28;20037;-42
2023/04/27 14:03:07;;;;;;;11.90;2.90;;;;;;;;;;5043315;28;20114;-44
2023/04/27 14:05:33;;;;;;;16.02;3.30;;;;;;;;;;5046483;28;20045;-43
2023/04/27 14:07:58;;;;;;;14.63;3.65;;;;;;;;;;5045261;28;20437;-45
2023/04/27 14:10:23;;;;;;;10.55;2.92;;;;;;;;;;5044373;28;20033;-47
2023/04/27 14:12:49;;;;;;;9.88;2.78;;;;;;;;;;5043531;28;20032;-51
2023/04/27 14:15:14;;;;;;;8.27;2.67;;;;;;;;;;5042083;28;20033;-47
2023/04/27 14:17:40;;;;;;;11.48;2.78;;;;;;;;;;5043054;28;20493;-45
2023/04/27 14:20:06;;;;;;;14.82;3.33;;;;;;;;;;5046269;28;20025;-45
2023/04/27 14:22:35;;;;;;;12.00;3.38;;;;;;;;;;5044489;28;20042;-45
2023/04/27 14:25:00;;;;;;;11.52;3.08;;;;;;;;;;5042385;28;20477;-44
2023/04/27 14:27:26;;;;;;;10.68;2.72;;;;;;;;;;5044847;28;20044;-42
2023/04/27 14:29:51;;;;;;;12.02;2.42;;;;;;;;;;5044555;28;20531;-44
2023/04/27 14:32:16;;;;;;;13.10;3.00;;;;;;;;;;5044918;28;20048;-45
2023/04/27 14:34:42;;;;;;;10.77;2.45;;;;;;;;;;5044842;28;20539;-46
2023/04/27 14:37:07;;;;;;;8.70;2.35;;;;;;;;;;5042371;28;20042;-46